Pagrindinis puslapis
METAR-TAF:

METAR-TAF

Oro uostai :

Longjyrbienas, Norvegija

platuma: 78-15N, ilguma: 015-28E, Aukštis: 2 m

Dabartinis oras

Ataskaita buvo paskelbta 33 minutes, ne 22:50 UTC
Vėjas 10 kt iš Rytų/Pietryčių
Temperatūra -14°C
Drėgmė 66%
Slėgis 1018 hPa
Matomumas 10 km arba daugiau
Išsisklaidę debesys ne aukštis 3100 ft

METAR: ENSB 042250Z 12010KT 9999 SCT031 M14/M19 Q1018 RMK WIND 1400FT 11012KT

Laikas: 00:23 (23:23 UTC)

Prognozė

Prognozė galioja nuo 04 metu 18 UTC su 05 metu 18 UTC
Vėjas 9 kt iš Rytų/Pietryčių
Matomumas 10 km arba daugiau
Išsisklaidę debesys ne aukštis 4000 ft

TAF: ENSB 0418/0518 12009KT 9999 SCT040

Orai ataskaitas ir orų prognozės (METAR, TAF).

turimą stotys yra geltonos ir raudonos taškus žemėlapyje.

Perkelti pele per norėdami pamatyti stoties vardą.

Tada spustelėkite, norėdami matyti oro stebėjimo ir prognozės.

Norėdami pakeisti žemėlapį: spustelėkite ant žalios mygtukų su juodo kryžiaus žemyn,; žalią mygtuką su brūkšneliu, jei norite nutolinti; arba žalių rodyklių gretimoms žemėlapius.


METAR-TAF: